Terminal Aerodrome Forecast
Issued by NWS

Home | Current Version | Previous Version | Text Only | Print | Product List | Glossary On
Versions: 1 2 3 4 5 6 7 8 9 10 11 12 13 14 15 16
000
FTUS43 KIND 290520
TAFHUF
TAF
KHUF 290520Z 2906/3006 17008KT P6SM BKN150
     FM290900 17006KT 4SM BR SCT080
     FM291400 23007KT P6SM BKN035
     FM292100 27008G16KT P6SM BKN040
     FM300200 29003KT P6SM SCT040 BKN200=

USA.gov is the U.S. government's official web portal to all federal, state and local government web resources and services.